Time;durP1;ratioP1;P1;durP2;ratioP2;P2;SDS_P1;SDS_P2;PMS_P1;PMS_P2;Temp;Humidity;BMP_temperature;BMP_pressure;BME280_temperature;BME280_humidity;BME280_pressure;Samples;Min_cycle;Max_cycle;Signal;HPM_P1;HPM_P2
2024/03/30 00:00:49;;;;;;;0.30;0.20;;;;;;;10.96;100.00;98406.66;4998080;28;20514;-51
2024/03/30 00:03:15;;;;;;;0.30;0.20;;;;;;;11.07;100.00;98409.50;4997486;28;20909;-51
2024/03/30 00:05:41;;;;;;;0.30;0.20;;;;;;;11.04;100.00;98414.16;4997767;28;20900;-51
2024/03/30 00:08:08;;;;;;;0.30;0.20;;;;;;;11.05;100.00;98413.22;4997704;28;20248;-51
2024/03/30 00:10:38;;;;;;;0.30;0.20;;;;;;;11.07;100.00;98419.28;4997628;28;20220;-50
2024/03/30 00:13:10;;;;;;;0.30;0.20;;;;;;;11.01;100.00;98425.84;4997205;28;20539;-51
2024/03/30 00:15:37;;;;;;;0.30;0.20;;;;;;;11.00;100.00;98431.25;4997848;28;20514;-50
2024/03/30 00:18:03;;;;;;;0.30;0.20;;;;;;;10.98;100.00;98423.38;4997717;28;20553;-50
2024/03/30 00:20:29;;;;;;;0.30;0.20;;;;;;;10.93;100.00;98420.13;4997497;28;20460;-51
2024/03/30 00:22:54;;;;;;;0.30;0.20;;;;;;;11.01;100.00;98419.69;4997387;28;20237;-50
2024/03/30 00:25:20;;;;;;;0.30;0.20;;;;;;;11.06;100.00;98417.59;4997578;28;20826;-50
2024/03/30 00:27:49;;;;;;;0.30;0.20;;;;;;;10.92;100.00;98415.75;4997486;28;20233;-50
2024/03/30 00:30:19;;;;;;;0.30;0.20;;;;;;;10.98;100.00;98416.25;4997413;28;20961;-50
2024/03/30 00:32:47;;;;;;;0.30;0.20;;;;;;;10.98;100.00;98415.41;4996735;28;20284;-50
2024/03/30 00:35:13;;;;;;;0.30;0.20;;;;;;;10.97;100.00;98398.59;4996228;28;20471;-50
2024/03/30 00:37:39;;;;;;;0.30;0.20;;;;;;;11.06;100.00;98399.81;4996990;28;20464;-50
2024/03/30 00:40:05;;;;;;;0.30;0.20;;;;;;;11.04;100.00;98388.44;4997036;28;20461;-50
2024/03/30 00:42:30;;;;;;;0.30;0.20;;;;;;;11.11;100.00;98388.94;4996700;28;20260;-50
2024/03/30 00:44:56;;;;;;;0.30;0.20;;;;;;;11.11;100.00;98391.59;4997346;28;20457;-50
2024/03/30 00:47:21;;;;;;;0.30;0.20;;;;;;;11.12;100.00;98390.63;4996969;28;20248;-51
2024/03/30 00:49:47;;;;;;;0.30;0.20;;;;;;;11.10;100.00;98377.44;4996857;28;20225;-51
2024/03/30 00:52:12;;;;;;;0.30;0.20;;;;;;;10.95;100.00;98379.22;4996158;28;20224;-50
2024/03/30 00:54:38;;;;;;;0.30;0.20;;;;;;;11.05;100.00;98387.47;4996742;28;20243;-51
2024/03/30 00:57:03;;;;;;;0.30;0.20;;;;;;;11.03;100.00;98384.06;4996479;28;20686;-51
2024/03/30 00:59:29;;;;;;;1.37;1.27;;;;;;;11.01;100.00;98385.13;4997116;28;20232;-50
2024/03/30 01:01:55;;;;;;;0.30;0.20;;;;;;;11.05;100.00;98397.25;4996617;28;20221;-51
2024/03/30 01:04:20;;;;;;;0.30;0.20;;;;;;;11.07;100.00;98400.69;4996641;28;20484;-51
2024/03/30 01:06:46;;;;;;;0.30;0.20;;;;;;;10.95;100.00;98402.28;4996519;28;20228;-51
2024/03/30 01:09:12;;;;;;;0.30;0.20;;;;;;;11.10;100.00;98398.72;4996467;28;20224;-51
2024/03/30 01:11:37;;;;;;;0.30;0.20;;;;;;;11.03;100.00;98404.47;4996719;28;20224;-51
2024/03/30 01:14:04;;;;;;;0.30;0.20;;;;;;;10.76;100.00;98405.19;4996332;28;20248;-50
2024/03/30 01:16:30;;;;;;;0.30;0.20;;;;;;;10.79;100.00;98399.69;4996284;28;20222;-51
2024/03/30 01:18:56;;;;;;;0.30;0.20;;;;;;;10.64;100.00;98405.91;4996771;28;20461;-51
2024/03/30 01:21:23;;;;;;;1.13;1.13;;;;;;;10.79;100.00;98405.00;4996507;28;20457;-51
2024/03/30 01:23:49;;;;;;;0.30;0.20;;;;;;;10.67;100.00;98388.00;4996287;28;20472;-50
2024/03/30 01:26:18;;;;;;;0.50;0.50;;;;;;;10.78;100.00;98386.50;4996486;28;20465;-50
2024/03/30 01:28:45;;;;;;;0.30;0.20;;;;;;;10.76;100.00;98377.78;4996087;28;20529;-51
2024/03/30 01:31:12;;;;;;;0.30;0.20;;;;;;;10.76;100.00;98378.63;4996343;28;20456;-51
2024/03/30 01:33:39;;;;;;;0.30;0.20;;;;;;;10.83;100.00;98377.31;4996106;28;20492;-50
2024/03/30 01:36:05;;;;;;;0.30;0.20;;;;;;;10.82;100.00;98367.59;4995981;28;20461;-51
2024/03/30 01:38:31;;;;;;;8.57;7.90;;;;;;;10.86;100.00;98371.81;4996206;28;20586;-50
2024/03/30 01:40:57;;;;;;;0.30;0.20;;;;;;;10.92;100.00;98374.09;4995857;28;20220;-51
2024/03/30 01:43:22;;;;;;;0.30;0.20;;;;;;;10.70;100.00;98367.53;4996173;28;20476;-50
2024/03/30 01:45:48;;;;;;;0.30;0.20;;;;;;;10.72;100.00;98369.13;4995678;28;20825;-50
2024/03/30 01:48:15;;;;;;;0.30;0.20;;;;;;;10.88;100.00;98369.06;4996141;28;20223;-51
2024/03/30 01:50:42;;;;;;;0.30;0.20;;;;;;;10.87;100.00;98368.19;4995654;28;20206;-51
2024/03/30 01:53:13;;;;;;;0.30;0.20;;;;;;;10.89;100.00;98371.63;4995848;28;20496;-50
2024/03/30 01:55:42;;;;;;;0.30;0.20;;;;;;;10.95;100.00;98373.88;4983349;28;20464;-50
2024/03/30 01:58:10;;;;;;;0.30;0.20;;;;;;;10.91;100.00;98369.72;4995870;28;20461;-50
2024/03/30 02:00:36;;;;;;;0.40;0.20;;;;;;;10.90;100.00;98375.97;4995637;28;21008;-51
2024/03/30 02:03:03;;;;;;;0.30;0.20;;;;;;;10.91;100.00;98380.34;4995434;28;20834;-50
2024/03/30 02:05:31;;;;;;;0.30;0.20;;;;;;;11.02;100.00;98381.50;4995601;28;20457;-50
2024/03/30 02:08:03;;;;;;;0.30;0.20;;;;;;;10.90;100.00;98368.00;4995742;28;20464;-50
2024/03/30 02:10:29;;;;;;;0.30;0.20;;;;;;;10.92;100.00;98368.75;4995782;28;20867;-50
2024/03/30 02:12:54;;;;;;;0.30;0.20;;;;;;;10.93;100.00;98369.63;4995295;28;20497;-50
2024/03/30 02:15:20;;;;;;;0.30;0.20;;;;;;;10.92;100.00;98373.22;4995429;28;20296;-50
2024/03/30 02:17:46;;;;;;;1.23;1.23;;;;;;;10.82;100.00;98367.59;4995495;28;20217;-50
2024/03/30 02:20:12;;;;;;;0.30;0.20;;;;;;;10.92;100.00;98375.88;4995183;28;20980;-50
2024/03/30 02:22:38;;;;;;;0.30;0.20;;;;;;;10.78;100.00;98375.88;4995092;28;20686;-50
2024/03/30 02:25:04;;;;;;;0.30;0.20;;;;;;;10.92;100.00;98368.75;4995113;28;20568;-50
2024/03/30 02:27:31;;;;;;;0.30;0.20;;;;;;;10.86;100.00;98353.22;4995022;28;20585;-50
2024/03/30 02:30:01;;;;;;;0.30;0.20;;;;;;;10.60;100.00;98341.50;4995530;28;20461;-50
2024/03/30 02:32:28;;;;;;;0.30;0.20;;;;;;;10.73;100.00;98335.44;4994746;28;20471;-51
2024/03/30 02:34:54;;;;;;;0.30;0.20;;;;;;;10.77;100.00;98339.63;4995162;28;20489;-50
2024/03/30 02:37:20;;;;;;;0.30;0.20;;;;;;;10.78;100.00;98336.84;4994656;28;21039;-50
2024/03/30 02:39:45;;;;;;;0.40;0.30;;;;;;;10.76;100.00;98336.09;4995371;28;20468;-50
2024/03/30 02:42:11;;;;;;;0.30;0.20;;;;;;;10.67;100.00;98334.84;4995118;28;20214;-50
2024/03/30 02:44:36;;;;;;;0.30;0.20;;;;;;;10.73;100.00;98335.44;4995156;28;20276;-50
2024/03/30 02:47:02;;;;;;;0.30;0.20;;;;;;;10.46;100.00;98325.53;4994811;28;20296;-50
2024/03/30 02:49:29;;;;;;;0.30;0.20;;;;;;;10.37;100.00;98329.56;4994952;28;20214;-50
2024/03/30 02:51:54;;;;;;;0.30;0.20;;;;;;;10.22;100.00;98330.47;4994826;28;20600;-50
2024/03/30 02:54:20;;;;;;;0.30;0.20;;;;;;;10.38;100.00;98333.94;4994977;28;20584;-50
2024/03/30 02:56:45;;;;;;;0.30;0.20;;;;;;;10.29;100.00;98334.50;4995074;28;20217;-50
2024/03/30 02:59:11;;;;;;;0.30;0.20;;;;;;;10.23;100.00;98323.38;4997957;28;20228;-50
2024/03/30 03:01:37;;;;;;;0.30;0.20;;;;;;;10.10;100.00;98328.50;4998792;28;20679;-50
2024/03/30 03:04:03;;;;;;;0.30;0.20;;;;;;;9.90;100.00;98336.78;4998947;28;20749;-50
2024/03/30 03:06:30;;;;;;;0.30;0.20;;;;;;;9.85;100.00;98333.50;4999089;28;20456;-50
2024/03/30 03:08:55;;;;;;;0.30;0.20;;;;;;;9.75;100.00;98333.19;4999188;28;20531;-50
2024/03/30 03:11:21;;;;;;;0.30;0.20;;;;;;;9.69;100.00;98336.19;4999021;28;20874;-51
2024/03/30 03:13:46;;;;;;;0.30;0.20;;;;;;;9.81;100.00;98338.16;4998555;28;20248;-50
2024/03/30 03:16:12;;;;;;;0.30;0.20;;;;;;;9.92;100.00;98343.72;4998398;28;20253;-50
2024/03/30 03:18:39;;;;;;;0.30;0.20;;;;;;;9.99;100.00;98341.53;4998685;28;20222;-50
2024/03/30 03:21:05;;;;;;;0.30;0.20;;;;;;;9.99;100.00;98345.03;4998845;28;20229;-51
2024/03/30 03:23:32;;;;;;;0.30;0.20;;;;;;;9.97;100.00;98338.97;4998508;28;20989;-50
2024/03/30 03:25:58;;;;;;;0.30;0.20;;;;;;;10.02;100.00;98325.47;4998416;28;21019;-51
2024/03/30 03:28:23;;;;;;;0.30;0.30;;;;;;;10.16;100.00;98316.69;4998621;28;20456;-50
2024/03/30 03:30:49;;;;;;;0.30;0.20;;;;;;;10.23;100.00;98324.22;4998241;28;20496;-51
2024/03/30 03:33:15;;;;;;;0.30;0.30;;;;;;;10.23;100.00;98334.84;4998422;28;20241;-50
2024/03/30 03:35:41;;;;;;;0.30;0.20;;;;;;;10.28;100.00;98319.50;4998422;28;20264;-50
2024/03/30 03:38:07;;;;;;;0.30;0.20;;;;;;;10.25;100.00;98326.78;4998563;28;20220;-51
2024/03/30 03:40:32;;;;;;;0.30;0.20;;;;;;;10.24;100.00;98325.94;4998177;28;20675;-50
2024/03/30 03:42:58;;;;;;;0.30;0.20;;;;;;;10.17;100.00;98324.56;4998252;28;20538;-50
2024/03/30 03:45:23;;;;;;;0.30;0.20;;;;;;;10.21;100.00;98320.81;4998323;28;20220;-50
2024/03/30 03:47:49;;;;;;;0.30;0.20;;;;;;;10.27;100.00;98319.56;4998269;28;20679;-50
2024/03/30 03:50:15;;;;;;;0.30;0.20;;;;;;;10.13;100.00;98328.31;4998144;28;20245;-50
2024/03/30 03:52:40;;;;;;;0.30;0.20;;;;;;;10.18;100.00;98330.72;4998127;28;20672;-50
2024/03/30 03:55:06;;;;;;;0.30;0.20;;;;;;;10.12;100.00;98331.06;4997575;28;20579;-51
2024/03/30 03:57:32;;;;;;;0.30;0.20;;;;;;;10.12;100.00;98315.13;4998256;28;20218;-51
2024/03/30 03:59:57;;;;;;;0.30;0.20;;;;;;;10.14;100.00;98323.88;4997922;28;20272;-51
2024/03/30 04:02:23;;;;;;;0.30;0.20;;;;;;;10.18;100.00;98323.63;4998206;28;20626;-50
2024/03/30 04:04:50;;;;;;;1.30;1.30;;;;;;;10.26;100.00;98320.53;4997854;28;20236;-51
2024/03/30 04:07:16;;;;;;;0.30;0.20;;;;;;;10.23;100.00;98318.91;4981744;28;20221;-50
2024/03/30 04:09:41;;;;;;;0.30;0.20;;;;;;;10.27;100.00;98316.91;4997056;28;20467;-50
2024/03/30 04:12:07;;;;;;;0.30;0.20;;;;;;;10.32;100.00;98336.97;4997790;28;20221;-51
2024/03/30 04:14:33;;;;;;;0.30;0.20;;;;;;;10.29;100.00;98347.78;4997304;28;20234;-51
2024/03/30 04:16:59;;;;;;;0.30;0.20;;;;;;;10.26;100.00;98345.28;4997758;28;20214;-51
2024/03/30 04:19:24;;;;;;;0.30;0.20;;;;;;;10.14;100.00;98348.63;4997737;28;20487;-50
2024/03/30 04:21:53;;;;;;;0.30;0.20;;;;;;;10.17;100.00;98344.94;4981303;28;20671;-51
2024/03/30 04:24:18;;;;;;;0.33;0.20;;;;;;;10.01;100.00;98347.63;4997643;28;20240;-50
2024/03/30 04:26:44;;;;;;;0.30;0.20;;;;;;;10.07;100.00;98347.28;4997180;28;20868;-50
2024/03/30 04:29:09;;;;;;;0.30;0.20;;;;;;;9.99;100.00;98349.50;4997499;28;20222;-50
2024/03/30 04:31:35;;;;;;;0.30;0.20;;;;;;;10.15;100.00;98354.81;4997616;28;20221;-50
2024/03/30 04:34:01;;;;;;;0.30;0.20;;;;;;;10.05;100.00;98354.47;4996749;28;20701;-50
2024/03/30 04:36:26;;;;;;;0.30;0.20;;;;;;;10.10;100.00;98357.72;4997496;28;20682;-50
2024/03/30 04:38:52;;;;;;;0.30;0.20;;;;;;;10.16;100.00;98352.06;4997368;28;20216;-51
2024/03/30 04:41:17;;;;;;;0.30;0.20;;;;;;;10.17;100.00;98352.91;4997406;28;20741;-50
2024/03/30 04:43:43;;;;;;;0.30;0.20;;;;;;;10.30;100.00;98357.44;4997167;28;20273;-51
2024/03/30 04:46:08;;;;;;;0.30;0.20;;;;;;;10.05;100.00;98350.03;4997036;28;20738;-50
2024/03/30 04:48:35;;;;;;;0.30;0.20;;;;;;;10.18;100.00;98355.47;4980791;28;20217;-51
2024/03/30 04:51:01;;;;;;;0.30;0.20;;;;;;;10.23;100.00;98355.22;4997201;28;20217;-50
2024/03/30 04:53:34;;;;;;;0.30;0.20;;;;;;;10.19;100.00;98348.38;4996869;28;20504;-51
2024/03/30 04:56:02;;;;;;;0.30;0.20;;;;;;;10.02;100.00;98344.03;4996970;28;20468;-50
2024/03/30 04:58:30;;;;;;;0.30;0.20;;;;;;;10.05;100.00;98344.72;4997005;28;20527;-50
2024/03/30 05:01:04;;;;;;;0.30;0.20;;;;;;;10.06;100.00;98335.81;4996537;28;20988;-50
2024/03/30 05:03:30;;;;;;;0.30;0.20;;;;;;;10.15;100.00;98333.56;4996797;28;20587;-50
2024/03/30 05:05:56;;;;;;;0.30;0.20;;;;;;;10.16;100.00;98338.78;4996977;28;20591;-50
2024/03/30 05:08:22;;;;;;;0.30;0.20;;;;;;;10.14;100.00;98342.44;4996309;28;21008;-50
2024/03/30 05:10:50;;;;;;;0.30;0.20;;;;;;;10.17;100.00;98344.94;4996709;28;20850;-51
2024/03/30 05:13:16;;;;;;;0.30;0.20;;;;;;;10.15;100.00;98336.22;5012512;23;20484;-50
2024/03/30 05:15:42;;;;;;;0.83;0.83;;;;;;;9.88;100.00;98334.22;5032446;28;20510;-51
2024/03/30 05:18:13;;;;;;;0.30;0.20;;;;;;;10.10;100.00;98333.81;5026620;28;20586;-51
2024/03/30 05:20:49;;;;;;;0.30;0.20;;;;;;;9.87;100.00;98335.16;5012458;28;20461;-51
2024/03/30 05:23:26;;;;;;;0.30;0.20;;;;;;;10.01;100.00;98337.03;5020054;28;20476;-49
2024/03/30 05:25:55;;;;;;;0.30;0.20;;;;;;;9.85;100.00;98318.44;5032324;28;20466;-49
2024/03/30 05:28:22;;;;;;;0.30;0.20;;;;;;;9.85;100.00;98320.25;5016123;28;20454;-49
2024/03/30 05:30:49;;;;;;;0.30;0.20;;;;;;;9.72;100.00;98320.09;5045202;28;20463;-50
2024/03/30 05:33:15;;;;;;;0.30;0.20;;;;;;;9.79;100.00;98319.66;5032221;28;20492;-49
2024/03/30 05:35:41;;;;;;;0.30;0.20;;;;;;;9.96;100.00;98312.53;5032111;28;20502;-49
2024/03/30 05:38:07;;;;;;;0.30;0.20;;;;;;;9.67;100.00;98309.75;5032445;28;20460;-49
2024/03/30 05:40:34;;;;;;;0.30;0.20;;;;;;;9.68;100.00;98321.22;5005505;28;20232;-49
2024/03/30 05:43:01;;;;;;;0.30;0.20;;;;;;;9.86;100.00;98322.81;5016330;28;21082;-49
2024/03/30 05:45:27;;;;;;;0.30;0.20;;;;;;;9.89;100.00;98327.97;5025283;28;20983;-49
2024/03/30 05:47:53;;;;;;;0.30;0.20;;;;;;;9.94;100.00;98325.88;5025958;28;20468;-49
2024/03/30 05:50:20;;;;;;;0.30;0.20;;;;;;;9.69;100.00;98322.91;5026665;28;20691;-49
2024/03/30 05:52:46;;;;;;;0.30;0.20;;;;;;;9.67;100.00;98333.63;5021844;28;20975;-49
2024/03/30 05:55:11;;;;;;;0.30;0.20;;;;;;;9.75;100.00;98318.13;5027783;28;20494;-49
2024/03/30 05:57:37;;;;;;;0.30;0.20;;;;;;;9.65;100.00;98316.09;5012261;28;20226;-49
2024/03/30 06:00:04;;;;;;;0.30;0.20;;;;;;;9.76;100.00;98324.31;5022017;28;20312;-49
2024/03/30 06:02:31;;;;;;;0.30;0.20;;;;;;;9.83;100.00;98319.47;5021969;28;20225;-49
2024/03/30 06:04:57;;;;;;;0.30;0.30;;;;;;;9.74;100.00;98315.56;5029915;28;20529;-49
2024/03/30 06:07:22;;;;;;;0.30;0.20;;;;;;;9.63;100.00;98313.53;5031715;28;20873;-49
2024/03/30 06:09:48;;;;;;;0.30;0.20;;;;;;;9.53;100.00;98316.78;5031232;28;20678;-49
2024/03/30 06:12:13;;;;;;;0.30;0.20;;;;;;;9.36;100.00;98318.56;5031628;28;20303;-49
2024/03/30 06:14:39;;;;;;;0.30;0.20;;;;;;;9.31;100.00;98312.66;5030446;28;20241;-49
2024/03/30 06:17:04;;;;;;;0.30;0.20;;;;;;;9.50;100.00;98318.66;5027341;28;20248;-49
2024/03/30 06:19:30;;;;;;;0.30;0.20;;;;;;;9.59;100.00;98322.56;5027816;28;20287;-49
2024/03/30 06:21:55;;;;;;;0.30;0.20;;;;;;;9.70;100.00;98327.28;5015044;28;20219;-49
2024/03/30 06:24:21;;;;;;;0.30;0.20;;;;;;;9.53;100.00;98316.78;5027308;28;20299;-50
2024/03/30 06:26:46;;;;;;;0.30;0.20;;;;;;;9.58;100.00;98318.22;5018815;28;20214;-50
2024/03/30 06:29:12;;;;;;;0.30;0.20;;;;;;;9.51;100.00;98327.47;5031234;28;20248;-50
2024/03/30 06:31:37;;;;;;;0.30;0.20;;;;;;;9.58;100.00;98333.28;5017525;28;20231;-50
2024/03/30 06:34:05;;;;;;;0.30;0.20;;;;;;;9.67;100.00;98330.13;5026703;28;20297;-51
2024/03/30 06:36:32;;;;;;;0.30;0.20;;;;;;;9.61;100.00;98322.53;5023156;28;20217;-50
2024/03/30 06:38:58;;;;;;;0.30;0.20;;;;;;;9.56;100.00;98321.91;5002343;28;20991;-50
2024/03/30 06:44:08;;;;;;;0.30;0.20;;;;;;;9.78;100.00;98323.25;5040521;28;20814;-50
2024/03/30 06:46:34;;;;;;;0.30;0.20;;;;;;;9.71;100.00;98321.88;5023107;28;20468;-50
2024/03/30 06:48:59;;;;;;;0.30;0.20;;;;;;;9.79;100.00;98321.47;5029961;28;20227;-50
2024/03/30 06:51:25;;;;;;;0.30;0.20;;;;;;;9.84;100.00;98326.50;5010257;28;20253;-50
2024/03/30 06:53:51;;;;;;;0.30;0.20;;;;;;;9.93;100.00;98334.78;5013675;28;20391;-50
2024/03/30 06:56:16;;;;;;;0.30;0.20;;;;;;;9.95;100.00;98340.88;5013160;28;20309;-50
2024/03/30 06:58:42;;;;;;;0.30;0.20;;;;;;;9.95;100.00;98343.53;5010704;28;20688;-50
2024/03/30 07:01:09;;;;;;;0.30;0.20;;;;;;;9.96;100.00;98342.56;5030956;28;20248;-50
2024/03/30 07:03:35;;;;;;;0.30;0.20;;;;;;;9.95;100.00;98340.00;5030756;28;20229;-50
2024/03/30 07:06:00;;;;;;;0.30;0.20;;;;;;;9.98;100.00;98345.13;5031092;28;20483;-51
2024/03/30 07:08:26;;;;;;;0.30;0.20;;;;;;;10.08;100.00;98347.19;5030915;28;20972;-50
2024/03/30 07:10:52;;;;;;;0.30;0.20;;;;;;;10.02;100.00;98341.38;5027079;28;20628;-50
2024/03/30 07:13:17;;;;;;;0.30;0.20;;;;;;;10.06;100.00;98361.50;5031291;28;20256;-50
2024/03/30 07:15:43;;;;;;;0.30;0.20;;;;;;;10.06;100.00;98353.53;5018816;28;20667;-50
2024/03/30 07:18:08;;;;;;;0.30;0.20;;;;;;;10.08;100.00;98365.75;5016923;28;20255;-50
2024/03/30 07:20:34;;;;;;;0.30;0.20;;;;;;;10.08;100.00;98359.59;5013664;28;20602;-50
2024/03/30 07:22:59;;;;;;;0.30;0.20;;;;;;;10.04;100.00;98374.84;5028459;28;20220;-50
2024/03/30 07:25:26;;;;;;;0.30;0.20;;;;;;;10.12;100.00;98342.53;5030219;28;20217;-51
2024/03/30 07:27:51;;;;;;;0.30;0.20;;;;;;;10.07;100.00;98358.75;5015457;28;20213;-50
2024/03/30 07:30:17;;;;;;;0.30;0.20;;;;;;;9.95;100.00;98337.34;5026513;28;20466;-51
2024/03/30 07:32:42;;;;;;;0.30;0.20;;;;;;;9.98;100.00;98361.91;5013532;28;20267;-50
2024/03/30 07:35:08;;;;;;;0.40;0.20;;;;;;;9.97;100.00;98341.63;4993876;28;20288;-50
2024/03/30 07:37:34;;;;;;;0.30;0.20;;;;;;;9.99;100.00;98349.50;5006484;28;20241;-50
2024/03/30 07:39:59;;;;;;;0.30;0.20;;;;;;;9.88;100.00;98336.00;5005878;28;20210;-51
2024/03/30 07:42:25;;;;;;;0.30;0.20;;;;;;;10.16;100.00;98338.78;5025623;28;20595;-50
2024/03/30 07:44:50;;;;;;;0.30;0.20;;;;;;;10.02;100.00;98323.66;5015285;28;20557;-50
2024/03/30 07:47:16;;;;;;;0.30;0.20;;;;;;;9.93;100.00;98331.28;5025651;28;20288;-50
2024/03/30 07:49:41;;;;;;;0.30;0.20;;;;;;;9.95;100.00;98324.94;5018331;28;20206;-49
2024/03/30 07:52:07;;;;;;;0.30;0.20;;;;;;;10.03;100.00;98337.78;5013593;28;20683;-50
2024/03/30 07:54:32;;;;;;;0.30;0.20;;;;;;;10.27;100.00;98332.84;5030568;28;20328;-50
2024/03/30 07:57:00;;;;;;;2.70;2.20;;;;;;;10.41;100.00;98332.91;5017445;28;20610;-50
2024/03/30 07:59:26;;;;;;;0.30;0.20;;;;;;;10.41;100.00;98338.22;5016711;28;20284;-49
2024/03/30 08:01:52;;;;;;;0.30;0.20;;;;;;;10.32;100.00;98344.94;5014337;28;20458;-50
2024/03/30 08:04:19;;;;;;;0.30;0.20;;;;;;;10.44;100.00;98330.06;5014821;28;20464;-49
2024/03/30 08:06:46;;;;;;;0.30;0.20;;;;;;;10.36;100.00;98343.78;5025603;28;20220;-49
2024/03/30 08:09:12;;;;;;;0.30;0.20;;;;;;;10.46;100.00;98348.56;4994475;28;20456;-50
2024/03/30 08:11:38;;;;;;;0.30;0.20;;;;;;;10.44;100.00;98346.00;5018455;28;20490;-49
2024/03/30 08:14:05;;;;;;;0.30;0.20;;;;;;;10.36;100.00;98350.91;5019684;28;20244;-49
2024/03/30 08:16:30;;;;;;;0.30;0.20;;;;;;;10.51;100.00;98343.84;5015549;28;20981;-49
2024/03/30 08:18:57;;;;;;;0.30;0.20;;;;;;;10.53;100.00;98336.63;5013053;28;20452;-49
2024/03/30 08:21:23;;;;;;;0.30;0.20;;;;;;;10.63;100.00;98343.97;5009852;28;20588;-49
2024/03/30 08:23:52;;;;;;;0.30;0.20;;;;;;;10.79;100.00;98340.38;5012034;28;21002;-49
2024/03/30 08:26:18;;;;;;;0.30;0.20;;;;;;;10.73;100.00;98343.41;5019279;28;20453;-49
2024/03/30 08:28:47;;;;;;;0.30;0.20;;;;;;;10.73;100.00;98338.94;5004211;28;20825;-49
2024/03/30 08:31:13;;;;;;;0.30;0.20;;;;;;;10.64;100.00;98336.84;5009120;28;20218;-49
2024/03/30 08:33:38;;;;;;;0.40;0.30;;;;;;;10.71;100.00;98353.28;5016771;28;20486;-49
2024/03/30 08:36:04;;;;;;;0.30;0.20;;;;;;;10.84;100.00;98351.59;5019713;28;20549;-49
2024/03/30 08:38:29;;;;;;;0.30;0.20;;;;;;;10.93;100.00;98359.84;5004348;28;20215;-49
2024/03/30 08:40:55;;;;;;;0.30;0.20;;;;;;;11.02;100.00;98355.78;5035697;28;20216;-50
2024/03/30 08:43:25;;;;;;;0.30;0.20;;;;;;;11.18;100.00;98361.00;5014146;28;20368;-49
2024/03/30 08:45:51;;;;;;;0.30;0.20;;;;;;;11.13;100.00;98371.06;5007683;28;20268;-49
2024/03/30 08:48:17;;;;;;;0.30;0.20;;;;;;;11.07;100.00;98369.63;5009453;28;20468;-49
2024/03/30 08:50:43;;;;;;;0.30;0.20;;;;;;;11.10;100.00;98379.22;5004041;28;20461;-49
2024/03/30 08:53:09;;;;;;;0.40;0.20;;;;;;;11.29;100.00;98363.84;5025919;28;20474;-49
2024/03/30 08:55:38;;;;;;;0.30;0.20;;;;;;;11.18;100.00;98366.31;5015835;28;20288;-50
2024/03/30 08:58:06;;;;;;;0.30;0.20;;;;;;;11.05;100.00;98366.22;5013029;28;20225;-49
2024/03/30 09:00:32;;;;;;;0.30;0.20;;;;;;;10.89;100.00;98366.31;5032935;28;20464;-49
2024/03/30 09:02:58;;;;;;;0.30;0.20;;;;;;;10.89;100.00;98352.16;5032667;28;20460;-50
2024/03/30 09:05:26;;;;;;;0.30;0.20;;;;;;;11.03;100.00;98346.00;5032960;28;20513;-50
2024/03/30 09:07:52;;;;;;;0.70;0.67;;;;;;;10.89;100.00;98352.16;5032709;28;20232;-49
2024/03/30 09:10:19;;;;;;;0.30;0.20;;;;;;;11.13;100.00;98357.78;5032560;28;20474;-49
2024/03/30 09:12:45;;;;;;;0.30;0.20;;;;;;;11.27;100.00;98341.81;5032576;28;20455;-51
2024/03/30 09:15:10;;;;;;;0.30;0.20;;;;;;;11.46;100.00;98353.00;5032301;28;20511;-49
2024/03/30 09:17:36;;;;;;;0.30;0.20;;;;;;;11.32;100.00;98341.53;5019103;28;20257;-49
2024/03/30 09:20:02;;;;;;;0.30;0.20;;;;;;;11.30;100.00;98346.94;5032663;28;20220;-49
2024/03/30 09:22:27;;;;;;;0.40;0.30;;;;;;;11.57;100.00;98344.34;5032412;28;20225;-50
2024/03/30 09:24:54;;;;;;;0.30;0.20;;;;;;;11.86;100.00;98351.31;5032115;28;20304;-50
2024/03/30 09:27:20;;;;;;;0.30;0.20;;;;;;;11.79;100.00;98362.50;5032092;28;20588;-50
2024/03/30 09:29:46;;;;;;;0.30;0.20;;;;;;;11.74;100.00;98362.72;5032345;28;20464;-50
2024/03/30 09:32:12;;;;;;;0.30;0.20;;;;;;;11.78;100.00;98368.69;5016235;28;20872;-50
2024/03/30 09:34:37;;;;;;;0.30;0.20;;;;;;;11.90;100.00;98367.94;5010906;28;20467;-49
2024/03/30 09:37:07;;;;;;;0.30;0.20;;;;;;;12.06;100.00;98367.78;5010085;28;20233;-50
2024/03/30 09:39:39;;;;;;;0.30;0.20;;;;;;;12.07;100.00;98369.53;5031988;28;20221;-49
2024/03/30 09:42:07;;;;;;;0.30;0.20;;;;;;;12.15;100.00;98370.72;5031926;28;20880;-50
2024/03/30 09:44:36;;;;;;;0.30;0.20;;;;;;;12.29;100.00;98368.97;5007757;28;20480;-50
2024/03/30 09:47:02;;;;;;;0.30;0.20;;;;;;;12.26;100.00;98362.03;5016128;28;20460;-50
2024/03/30 09:49:32;;;;;;;0.30;0.20;;;;;;;12.36;100.00;98381.78;5017983;28;20479;-50
2024/03/30 09:52:01;;;;;;;0.30;0.20;;;;;;;12.27;100.00;98376.19;5016243;28;20459;-50
2024/03/30 09:54:29;;;;;;;0.30;0.20;;;;;;;12.57;100.00;98382.13;5031088;28;20495;-50
2024/03/30 09:56:55;;;;;;;0.30;0.20;;;;;;;12.61;100.00;98382.78;5010491;28;20487;-50
2024/03/30 09:59:21;;;;;;;0.30;0.20;;;;;;;12.87;100.00;98381.00;5022589;28;20472;-50
2024/03/30 10:01:47;;;;;;;0.30;0.20;;;;;;;12.75;100.00;98388.91;5012239;28;20460;-50
2024/03/30 10:04:12;;;;;;;0.30;0.20;;;;;;;13.06;100.00;98397.47;5022426;28;20244;-50
2024/03/30 10:06:55;;;;;;;1.23;1.23;;;;;;;13.05;100.00;98406.44;5027542;28;20682;-50
2024/03/30 10:09:22;;;;;;;0.40;0.40;;;;;;;13.02;100.00;98399.50;5013677;28;20213;-50
2024/03/30 10:11:49;;;;;;;0.30;0.20;;;;;;;13.01;100.00;98402.25;5004969;28;20437;-50
2024/03/30 10:14:21;;;;;;;0.30;0.20;;;;;;;13.00;100.00;98405.88;5017824;28;20485;-49
2024/03/30 10:16:47;;;;;;;0.30;0.20;;;;;;;13.25;100.00;98405.91;4999380;28;20814;-50
2024/03/30 10:19:19;;;;;;;0.30;0.20;;;;;;;13.15;100.00;98417.28;5025331;28;20464;-50
2024/03/30 10:21:45;;;;;;;0.30;0.20;;;;;;;13.14;100.00;98421.78;5022452;28;20214;-49
2024/03/30 10:24:17;;;;;;;0.30;0.20;;;;;;;13.33;100.00;98424.06;5025497;28;20480;-49
2024/03/30 10:26:42;;;;;;;0.30;0.20;;;;;;;13.36;100.00;98431.88;5007042;28;20449;-50
2024/03/30 10:29:09;;;;;;;0.30;0.20;;;;;;;13.40;100.00;98429.81;5008630;28;20575;-50
2024/03/30 10:31:38;;;;;;;0.40;0.40;;;;;;;13.43;100.00;98416.25;5015271;28;20232;-49
2024/03/30 10:34:04;;;;;;;0.30;0.20;;;;;;;13.36;100.00;98407.84;5026153;28;21027;-50
2024/03/30 10:36:29;;;;;;;0.30;0.20;;;;;;;12.82;100.00;98397.31;5017473;28;20455;-50
2024/03/30 10:38:58;;;;;;;0.30;0.20;;;;;;;12.61;100.00;98389.00;5016403;28;20633;-49
2024/03/30 10:41:27;;;;;;;0.30;0.20;;;;;;;12.71;100.00;98376.72;5030875;28;20670;-49
2024/03/30 10:43:53;;;;;;;0.30;0.20;;;;;;;12.83;100.00;98379.53;5030431;28;20480;-50
2024/03/30 10:46:19;;;;;;;0.30;0.20;;;;;;;12.80;100.00;98385.91;5027872;28;20472;-49
2024/03/30 10:48:44;;;;;;;0.30;0.20;;;;;;;12.92;100.00;98386.91;5027339;28;20483;-49
2024/03/30 10:51:10;;;;;;;0.30;0.20;;;;;;;13.12;100.00;98390.84;5018747;28;20817;-50
2024/03/30 10:53:36;;;;;;;0.30;0.20;;;;;;;13.16;100.00;98395.88;5019918;28;20233;-50
2024/03/30 10:56:01;;;;;;;0.30;0.20;;;;;;;13.26;100.00;98401.44;5013277;28;20435;-50
2024/03/30 10:58:27;;;;;;;0.30;0.20;;;;;;;13.34;100.00;98415.97;5014907;28;20221;-50
2024/03/30 11:00:54;;;;;;;0.30;0.20;;;;;;;13.27;100.00;98408.47;5030935;28;20263;-50
2024/03/30 11:03:21;;;;;;;0.30;0.20;;;;;;;13.37;100.00;98409.56;5030716;28;20251;-50
2024/03/30 11:05:47;;;;;;;0.30;0.20;;;;;;;13.32;100.00;98407.22;5030883;28;20834;-50
2024/03/30 11:08:13;;;;;;;0.30;0.20;;;;;;;13.27;100.00;98395.13;5019137;28;20799;-49
2024/03/30 11:10:40;;;;;;;0.30;0.20;;;;;;;13.04;100.00;98397.56;5030964;28;20829;-49
2024/03/30 11:15:43;;;;;;;0.30;0.20;;;;;;;13.47;100.00;98405.28;4941071;29;20458;-49
2024/03/30 11:18:15;;;;;;;0.30;0.20;;;;;;;13.35;100.00;98406.13;4921005;29;20554;-50
2024/03/30 11:20:50;;;;;;;0.30;0.20;;;;;;;13.44;100.00;98407.31;4926428;29;20212;-49
2024/03/30 11:23:25;;;;;;;0.30;0.20;;;;;;;13.54;100.00;98419.03;4920933;29;20463;-49
2024/03/30 11:26:03;;;;;;;0.30;0.20;;;;;;;13.54;100.00;98417.22;4924461;29;20975;-49
2024/03/30 11:28:42;;;;;;;0.30;0.20;;;;;;;13.66;100.00;98419.97;4938214;29;20472;-49